Robertsdale, AL (36567)

4:43 PM CDT on April 19, 2015 (GMT -0500)
County Road 48 West | | Change Station
CLOSE
Current Station
Personal Weather Station
Location: Robertsdale, AL
Elevation: 95 ft
Nearby Weather Stations
Active Advisory: Coastal Hazard Statement

Elev 95 ft 30.53 °N, 87.73 °W | Updated 11 minutes ago

Mostly Cloudy
Mostly Cloudy
77.1 °F
Feels Like 79 °F
N
4.0
Wind Variable Wind from South
Gusts 15.0 mph

Today
High -- | Low -- °F
--% Chance of Precip.
Yesterday
High -- | Low -- °F
Precip. -- in
6:18 AM 7:20 PM
New Moon, 2% visible
Pressure 29.79 in
Visibility 10.0 miles
Clouds Scattered Clouds 1300 ft
Heat Index 79 °F
Dew Point 70 °F
Humidity 79%
Rainfall 1.02 in
Snow Depth Not available.
UV 3.3 out of 12
Pollen 6.00 out of 12
Air Quality Not available.
Flu Activity Sporadic
METAR KCQF 192135Z AUTO 22008KT 190V250 10SM SCT013 24/21 A2979 RMK AO2

More Conditions Fewer Conditions

Pressure 29.79 in
Visibility 10.0 miles
Clouds Scattered Clouds 1300 ft
Heat Index 79 °F
Dew Point 70 °F
Humidity 79%
Rainfall 1.02 in
Snow Depth Not available.
UV 3.3 out of 12
Pollen 6.00 out of 12
Air Quality Not available.
Flu Activity Sporadic
METAR KCQF 192135Z AUTO 22008KT 190V250 10SM SCT013 24/21 A2979 RMK AO2

More Conditions Fewer Conditions

10-Day Weather Forecast

Almanac

Astronomy

Apr. 19, 2015 Rise Set
Actual Time
Civil Twilight
Nautical Twilight
Astronomical Twilight
Moon
Length of Visible Light
Length of Day
Tomorrow will be .
, % of the Moon is Illuminated

Today's Extremes

State Highs State Lows

Community

WunderPhotos

Upload Photos

1,814,994 photos uploaded!

WunderBlogs® & News

Nearby

Air Quality

  Air Quality AQ Index Pollutant
Not available.

Snow Depth

Station Depth Elevation

Earthquake Activity

City Distance Mag. Time & Date
Minimum magnitude displayed is 2.5.

Coastal Water Temperatures

Place Temperature

Stations

Nearby Weather Stations

Station Location Temp. Windchill Dew Point Humidity Wind Precip. Elev Updated Type
                   
Coastal Hazard Statement
Statement as of 8:57 AM CDT on April 19, 2015

... High rip current risk remains in effect until 7 PM CDT this
evening...

* timing... through this evening.

* Impacts... dangerous swimming conditions can be expected due to
the presence of stronger and more frequent rip currents.

Precautionary/preparedness actions...

There is a high risk of rip currents.

Rip currents are powerful channels of water flowing quickly away
from shore... which occur most often at low spots or breaks in The
Sandbar and in the vicinity of structures such as groins...
jetties and piers. Heed the advice of lifeguards and the beach
patrol. Pay attention to flags and posted signs.

If you become caught in a rip current... do not panic. Remain calm
and begin to swim parallel to shore. Once you are away from the
force of the rip current... begin to swim back to the beach. Do
not attempt to swim directly against a rip current. Even a strong
swimmer can become exhausted quickly.